Time;durP1;ratioP1;P1;durP2;ratioP2;P2;SDS_P1;SDS_P2;PMS_P1;PMS_P2;Temp;Humidity;BMP_temperature;BMP_pressure;BME280_temperature;BME280_humidity;BME280_pressure;Samples;Min_cycle;Max_cycle;Signal;HPM_P1;HPM_P2
2021/12/08 00:01:21;;;;;;;5.68;1.70;;;4.60;99.90;;;2.83;94.33;99017.19;2568987;30;137741;-39
2021/12/08 00:03:51;;;;;;;7.35;1.38;;;4.60;99.90;;;2.90;93.25;99026.09;2568723;30;138253;-39
2021/12/08 00:06:19;;;;;;;5.05;1.30;;;4.60;99.90;;;2.93;92.91;99028.41;2567902;30;138161;-39
2021/12/08 00:09:01;;;;;;;3.47;1.30;;;4.60;99.90;;;2.93;92.49;99017.63;2569547;30;138157;-39
2021/12/08 00:14:16;;;;;;;4.07;1.42;;;4.70;99.90;;;3.01;92.82;99028.19;2570306;30;136640;-39
2021/12/08 00:16:44;;;;;;;2.78;1.05;;;4.70;99.90;;;3.02;92.23;99021.78;2568190;30;137889;-39
2021/12/08 00:19:12;;;;;;;5.68;1.30;;;4.70;99.90;;;3.03;93.19;99027.97;2570045;30;137521;-39
2021/12/08 00:21:39;;;;;;;5.78;1.73;;;4.70;99.90;;;3.04;93.31;99018.84;2570247;30;138452;-39
2021/12/08 00:24:07;;;;;;;6.28;1.65;;;4.80;99.90;;;3.07;94.34;99018.47;2569976;30;136772;-39
2021/12/08 00:26:36;;;;;;;6.45;1.73;;;4.80;99.90;;;3.04;94.84;99005.38;2568978;30;138610;-39
2021/12/08 00:29:05;;;;;;;4.35;1.67;;;4.80;99.90;;;3.04;95.00;99007.25;2570231;30;136531;-39
2021/12/08 00:31:33;;;;;;;5.57;1.50;;;4.70;99.90;;;3.02;95.60;99010.16;2567538;30;139330;-39
2021/12/08 00:34:02;;;;;;;3.63;1.27;;;4.70;99.90;;;2.99;95.60;99003.34;2570208;30;137389;-39
2021/12/08 00:36:40;;;;;;;3.75;1.23;;;4.70;99.90;;;3.01;95.66;99003.09;2567743;30;137689;-39
2021/12/08 00:39:09;;;;;;;3.38;1.30;;;4.70;99.90;;;3.01;95.29;99003.09;2569523;30;137674;-39
2021/12/08 00:41:37;;;;;;;2.25;1.08;;;4.70;99.90;;;3.06;95.31;99010.56;2570051;30;138235;-39
2021/12/08 00:44:06;;;;;;;3.97;1.08;;;4.80;99.90;;;3.05;95.14;99017.00;2569337;30;138131;-39
2021/12/08 00:46:36;;;;;;;5.93;1.42;;;4.80;99.90;;;3.06;96.49;99013.28;2572976;30;137174;-39
2021/12/08 00:49:07;;;;;;;3.83;1.40;;;4.80;99.90;;;3.08;96.63;99008.50;2569376;30;137591;-39
2021/12/08 00:51:35;;;;;;;3.08;1.20;;;4.80;99.90;;;3.12;97.21;99009.75;2566930;30;138318;-39
2021/12/08 00:54:03;;;;;;;;;;;4.80;99.90;;;3.11;96.97;99003.53;2569436;30;138321;-39
2021/12/08 00:56:31;;;;;;;3.10;1.40;;;4.80;99.90;;;3.12;97.27;99010.56;2571494;30;138650;-39
2021/12/08 00:58:58;;;;;;;;;;;4.80;99.90;;;3.18;96.36;99022.38;2569469;30;136877;-39
2021/12/08 01:01:29;;;;;;;2.88;1.10;;;4.90;99.90;;;3.18;96.32;99022.38;2568526;30;139428;-39
2021/12/08 01:03:57;;;;;;;2.47;1.15;;;4.90;99.90;;;3.20;96.32;99024.88;2570223;30;137539;-39
2021/12/08 01:06:32;;;;;;;8.38;1.20;;;4.90;99.90;;;3.22;96.29;99014.72;2567627;30;138348;-39
2021/12/08 01:09:00;;;;;;;2.75;1.10;;;4.90;99.90;;;3.22;96.44;99034.41;2566363;30;137383;-39
2021/12/08 01:11:30;;;;;;;2.78;1.10;;;4.90;99.90;;;3.23;96.40;99038.78;2567693;30;137252;-39
2021/12/08 01:13:57;;;;;;;4.30;0.90;;;4.90;99.90;;;3.20;96.57;99020.31;2568370;30;136816;-39
2021/12/08 01:16:25;;;;;;;5.05;1.02;;;4.90;99.90;;;3.23;96.34;99022.59;2569759;30;138150;-39
2021/12/08 01:18:53;;;;;;;4.78;1.50;;;5.00;99.90;;;3.30;96.08;99027.97;2571683;30;138025;-40
2021/12/08 01:21:21;;;;;;;4.50;1.20;;;5.00;99.90;;;3.29;96.32;99010.97;2568020;30;138755;-39
2021/12/08 01:23:52;;;;;;;6.32;1.30;;;5.00;99.90;;;3.24;96.36;99010.78;2569538;30;138014;-39
2021/12/08 01:26:19;;;;;;;3.05;1.13;;;5.00;99.90;;;3.30;95.92;99020.72;2567904;30;138102;-39
2021/12/08 01:28:47;;;;;;;4.50;1.30;;;5.00;99.90;;;3.27;97.03;99023.00;2570438;30;137435;-39
2021/12/08 01:31:14;;;;;;;2.97;1.10;;;5.00;99.90;;;3.27;96.98;99010.34;2568195;30;138249;-39
2021/12/08 01:33:42;;;;;;;4.57;1.25;;;5.00;99.90;;;3.34;96.68;99013.06;2570729;30;137633;-39
2021/12/08 01:36:10;;;;;;;2.88;1.25;;;5.00;99.90;;;3.31;97.04;99005.34;2568780;30;138566;-39
2021/12/08 01:38:37;;;;;;;2.85;1.40;;;5.00;99.90;;;3.34;97.11;99023.00;2570335;30;136891;-39
2021/12/08 01:41:09;;;;;;;2.25;1.20;;;5.00;99.90;;;3.37;96.97;99027.97;2566324;30;138234;-39
2021/12/08 01:43:43;;;;;;;5.22;1.15;;;5.10;99.90;;;3.42;97.21;99009.28;2568767;30;137152;-39
2021/12/08 01:46:14;;;;;;;3.55;1.27;;;5.10;99.90;;;3.38;96.62;99022.38;2569076;30;137297;-39
2021/12/08 01:48:43;;;;;;;2.42;1.10;;;5.10;99.90;;;3.39;97.30;99009.72;2569604;30;137152;-39
2021/12/08 01:51:17;;;;;;;4.88;1.27;;;5.10;99.90;;;3.43;97.09;99037.91;2569725;30;138312;-39
2021/12/08 01:53:52;;;;;;;4.38;1.10;;;5.10;99.90;;;3.45;97.44;99025.88;2572892;30;137822;-39
2021/12/08 01:56:26;;;;;;;3.30;1.10;;;5.20;99.90;;;3.47;97.11;99027.53;2569639;30;138982;-39
2021/12/08 01:58:54;;;;;;;2.25;0.95;;;5.20;99.90;;;3.48;96.83;99034.59;2572880;30;136575;-39
2021/12/08 02:01:26;;;;;;;2.58;1.10;;;5.20;99.90;;;3.46;96.31;99032.13;2570493;30;137303;-39
2021/12/08 02:03:54;;;;;;;4.30;1.27;;;5.20;99.90;;;3.51;96.57;99034.16;2570374;30;138865;-40
2021/12/08 02:06:22;;;;;;;;;;;5.20;99.90;;;3.53;96.74;99032.09;2569246;30;139047;-39
2021/12/08 02:08:52;;;;;;;2.30;0.93;;;5.20;99.90;;;3.53;96.39;99027.53;2572582;30;136951;-39
2021/12/08 02:11:22;;;;;;;3.83;0.90;;;5.20;99.90;;;3.53;96.01;99032.94;2570640;30;140200;-39
2021/12/08 02:13:52;;;;;;;2.90;1.33;;;5.30;99.90;;;3.53;96.05;99032.09;2570296;30;137496;-39
2021/12/08 02:16:20;;;;;;;3.72;1.20;;;5.20;99.90;;;3.53;96.50;99049.09;2567867;30;138326;-39
2021/12/08 02:18:49;;;;;;;3.95;1.15;;;5.20;99.90;;;3.55;96.21;99038.09;2571921;30;136867;-39
2021/12/08 02:21:27;;;;;;;3.50;0.93;;;5.30;99.90;;;3.55;96.68;99047.03;2568917;30;137674;-39
2021/12/08 02:24:00;;;;;;;3.17;1.37;;;5.30;99.90;;;3.49;96.99;99047.03;2570411;30;138758;-39
2021/12/08 02:26:29;;;;;;;3.85;1.30;;;5.20;99.90;;;3.49;97.15;99047.03;2567220;38;138204;-40
2021/12/08 02:29:03;;;;;;;2.58;1.25;;;5.20;99.90;;;3.46;97.49;99048.28;2568449;30;138262;-39
2021/12/08 02:31:49;;;;;;;5.07;1.13;;;5.20;99.90;;;3.55;97.19;99046.19;2570443;30;138290;-39
2021/12/08 02:48:29;;;;;;;2.30;0.90;;;5.30;99.90;;;3.61;97.34;99066.94;2569389;30;139508;-39
2021/12/08 02:50:58;;;;;;;3.33;1.20;;;5.30;99.90;;;3.65;98.24;99070.88;2568891;30;137148;-39
2021/12/08 02:53:26;;;;;;;4.00;1.20;;;5.30;99.90;;;3.63;98.04;99064.84;2570270;30;138815;-39
2021/12/08 02:55:53;;;;;;;6.57;1.20;;;5.30;99.90;;;3.65;98.22;99068.19;2570537;30;138094;-39
2021/12/08 02:58:21;;;;;;;1.75;1.00;;;5.30;99.90;;;3.72;98.05;99076.25;2571401;30;137284;-39
2021/12/08 03:00:59;;;;;;;3.25;1.20;;;5.40;99.90;;;3.76;97.53;99079.34;2570987;30;137338;-39
2021/12/08 03:03:27;;;;;;;3.35;1.20;;;5.40;99.90;;;3.72;97.71;99078.97;2571157;30;139314;-39
2021/12/08 03:05:55;;;;;;;2.72;1.20;;;5.40;99.90;;;3.68;97.94;99078.53;2570977;30;137598;-39
2021/12/08 03:08:23;;;;;;;3.17;1.25;;;5.40;99.90;;;3.62;98.30;99068.59;2569316;30;137229;-39
2021/12/08 03:10:52;;;;;;;3.30;1.10;;;5.40;99.90;;;3.70;98.20;99091.81;2569964;30;138159;-39
2021/12/08 03:13:41;;;;;;;3.65;1.20;;;5.40;99.90;;;3.68;98.38;99083.09;2569610;30;138172;-39
2021/12/08 03:16:14;;;;;;;2.10;1.10;;;5.40;99.90;;;3.69;98.04;99084.75;2570730;30;137812;-39
2021/12/08 03:18:42;;;;;;;2.85;1.08;;;5.40;99.90;;;3.67;98.31;99095.75;2569748;30;139377;-39
2021/12/08 03:21:10;;;;;;;3.30;1.08;;;5.40;99.90;;;3.67;98.48;99098.47;2568207;30;140191;-39
2021/12/08 03:23:52;;;;;;;2.95;1.20;;;5.40;99.90;;;3.71;98.41;99090.75;2569224;30;138379;-39
2021/12/08 03:26:27;;;;;;;1.95;1.00;;;5.40;99.90;;;3.67;98.34;99093.06;2576599;30;137865;-39
2021/12/08 03:29:18;;;;;;;4.47;1.30;;;5.40;99.90;;;3.65;97.98;99091.59;2568019;30;137363;-39
2021/12/08 03:31:46;;;;;;;3.00;1.10;;;5.40;99.90;;;3.64;98.23;99106.13;2568029;30;138130;-39
2021/12/08 03:34:14;;;;;;;2.53;1.10;;;5.40;99.90;;;3.60;98.30;99098.47;2568263;30;138461;-39
2021/12/08 03:36:42;;;;;;;3.17;1.23;;;5.30;99.90;;;3.59;98.60;99109.47;2567683;30;137586;-39
2021/12/08 03:39:09;;;;;;;3.05;1.20;;;5.30;99.90;;;3.55;98.86;99116.31;2567832;30;138874;-40
2021/12/08 03:41:37;;;;;;;2.35;1.10;;;5.30;99.90;;;3.53;99.04;99111.13;2568309;30;137383;-40
2021/12/08 03:44:06;;;;;;;3.53;1.23;;;5.30;99.90;;;3.55;99.17;99117.16;2567819;30;137532;-39
2021/12/08 03:46:40;;;;;;;3.40;1.20;;;5.30;99.90;;;3.55;99.64;99114.44;2567982;30;137041;-40
2021/12/08 03:49:16;;;;;;;2.85;1.08;;;5.20;99.90;;;3.59;99.89;99118.38;2565962;30;138076;-40
2021/12/08 03:51:44;;;;;;;2.63;1.30;;;5.30;99.90;;;3.59;99.80;99118.38;2567221;30;138304;-39
2021/12/08 03:54:12;;;;;;;;;;;5.30;99.90;;;3.62;99.46;99119.00;2568141;30;138202;-40
2021/12/08 03:56:42;;;;;;;1.80;0.98;;;5.30;99.90;;;3.68;99.41;99128.94;2567049;30;137817;-40
2021/12/08 03:59:10;;;;;;;3.42;1.30;;;5.30;99.90;;;3.65;99.74;99127.50;2568229;30;138113;-40
2021/12/08 04:01:38;;;;;;;3.50;1.30;;;5.40;99.90;;;3.62;99.84;99136.03;2567006;30;137314;-40
2021/12/08 04:04:08;;;;;;;5.38;1.50;;;5.30;99.90;;;3.55;99.79;99133.31;2567334;30;138322;-39
2021/12/08 04:06:56;;;;;;;4.38;1.30;;;5.30;99.90;;;3.56;100.00;99126.88;2566786;30;138322;-40
2021/12/08 04:11:54;;;;;;;2.40;1.13;;;5.30;99.90;;;3.61;100.00;99123.59;2568050;30;137394;-40
2021/12/08 04:14:28;;;;;;;3.70;1.38;;;5.30;99.90;;;3.56;100.00;99124.19;2567034;30;138267;-39
2021/12/08 04:17:27;;;;;;;3.10;1.38;;;5.30;99.90;;;3.54;100.00;99114.63;2569102;30;137433;-40
2021/12/08 04:19:59;;;;;;;3.42;1.35;;;5.30;99.90;;;3.46;100.00;99115.69;2566711;30;138889;-40
2021/12/08 04:22:34;;;;;;;2.65;1.38;;;5.20;99.90;;;3.55;100.00;99122.53;2566999;30;137391;-39
2021/12/08 04:25:13;;;;;;;2.88;1.40;;;5.20;99.90;;;3.52;100.00;99117.56;2566659;30;138131;-40
2021/12/08 04:27:43;;;;;;;3.35;1.50;;;5.30;99.90;;;3.54;100.00;99115.47;2568201;30;137446;-40
2021/12/08 04:30:31;;;;;;;3.58;1.42;;;5.20;99.90;;;3.48;100.00;99115.47;2568111;30;138177;-39
2021/12/08 04:33:00;;;;;;;2.63;1.10;;;5.20;99.90;;;3.47;100.00;99122.75;2568081;30;136812;-39
2021/12/08 04:35:28;;;;;;;3.33;1.40;;;5.20;99.90;;;3.47;100.00;99114.66;2566052;30;138411;-39
2021/12/08 04:38:04;;;;;;;4.82;1.63;;;5.20;99.90;;;3.54;100.00;99123.56;2567815;30;138590;-39
2021/12/08 04:46:04;;;;;;;3.35;1.30;;;5.30;99.90;;;3.60;100.00;99130.81;2567983;30;139083;-39
2021/12/08 04:52:02;;;;;;;4.68;1.50;;;5.30;99.90;;;3.55;100.00;99140.56;2566855;30;138934;-39
2021/12/08 05:00:17;;;;;;;3.58;1.58;;;5.30;99.90;;;3.58;100.00;99142.84;2568516;30;136888;-40
2021/12/08 05:03:01;;;;;;;3.08;1.52;;;5.30;99.90;;;3.52;100.00;99151.78;2568715;30;138379;-39
2021/12/08 05:05:59;;;;;;;4.60;1.75;;;5.20;99.90;;;3.47;100.00;99157.81;2566987;30;136842;-40
2021/12/08 05:08:34;;;;;;;2.90;1.60;;;5.20;99.90;;;3.49;100.00;99168.38;2567024;30;138120;-39
2021/12/08 05:11:03;;;;;;;4.07;1.50;;;5.20;99.90;;;3.38;100.00;99170.66;2567270;30;137678;-39
2021/12/08 05:13:31;;;;;;;4.55;1.45;;;5.10;99.90;;;3.35;100.00;99167.53;2565630;30;137309;-39
2021/12/08 05:15:59;;;;;;;3.58;1.60;;;5.10;99.90;;;3.26;100.00;99180.38;2567475;30;138127;-40
2021/12/08 05:18:36;;;;;;;4.70;1.70;;;5.00;99.90;;;3.20;100.00;99173.97;2566687;30;137671;-40
2021/12/08 05:21:10;;;;;;;4.97;1.58;;;4.90;99.90;;;3.11;100.00;99169.78;2567240;30;137730;-39
2021/12/08 05:23:45;;;;;;;3.90;1.60;;;4.90;99.90;;;3.07;100.00;99180.16;2568370;30;138245;-40
2021/12/08 05:26:29;;;;;;;3.38;1.40;;;4.80;99.90;;;2.96;100.00;99180.72;2566416;30;138146;-39
2021/12/08 05:29:09;;;;;;;3.47;1.42;;;4.80;99.90;;;3.00;100.00;99187.34;2568195;30;139107;-40
2021/12/08 05:31:38;;;;;;;3.42;1.42;;;4.70;99.90;;;2.95;100.00;99176.38;2565469;30;138000;-40
2021/12/08 05:34:06;;;;;;;4.13;1.58;;;4.70;99.90;;;2.94;100.00;99175.56;2568409;30;136876;-39
2021/12/08 05:36:35;;;;;;;4.00;1.85;;;4.70;99.90;;;2.96;100.00;99173.47;2567087;30;138414;-40
2021/12/08 05:39:11;;;;;;;4.53;1.70;;;4.70;99.90;;;2.91;100.00;99170.53;2568041;30;138493;-40
2021/12/08 05:41:41;;;;;;;4.53;1.77;;;4.70;99.90;;;2.94;100.00;99180.09;2567916;30;138133;-40
2021/12/08 05:44:10;;;;;;;4.88;1.52;;;4.70;99.90;;;2.99;100.00;99185.69;2566641;30;139646;-40
2021/12/08 05:46:44;;;;;;;4.53;1.77;;;4.70;99.90;;;2.98;100.00;99176.81;2567184;30;138208;-39
2021/12/08 05:49:17;;;;;;;4.40;1.75;;;4.70;99.90;;;3.00;100.00;99180.13;2567913;30;138848;-40
2021/12/08 05:51:49;;;;;;;4.63;1.75;;;4.70;99.90;;;3.03;100.00;99178.88;2567560;30;137184;-39
2021/12/08 05:54:30;;;;;;;6.90;1.90;;;4.70;99.90;;;3.04;100.00;99179.72;2568260;30;137869;-40
2021/12/08 05:57:04;;;;;;;4.47;1.90;;;4.70;99.90;;;3.03;100.00;99181.56;2567821;30;137440;-39
2021/12/08 05:59:33;;;;;;;4.97;1.63;;;4.80;99.90;;;2.93;100.00;99176.59;2564873;30;138531;-39
2021/12/08 06:02:11;;;;;;;4.78;1.90;;;4.70;99.90;;;3.00;100.00;99187.34;2564913;30;138135;-40
2021/12/08 06:04:42;;;;;;;4.07;1.95;;;4.70;99.90;;;3.02;100.00;99196.06;2567221;30;138398;-40
2021/12/08 06:07:11;;;;;;;5.07;1.65;;;4.70;99.90;;;2.97;100.00;99191.31;2565523;30;137249;-39
2021/12/08 06:09:40;;;;;;;5.82;2.30;;;4.70;99.90;;;2.96;100.00;99207.66;2568330;30;138399;-40
2021/12/08 06:12:10;;;;;;;3.65;1.75;;;4.70;99.90;;;2.93;100.00;99203.53;2566982;30;138412;-39
2021/12/08 06:14:39;;;;;;;5.63;1.90;;;4.70;99.90;;;2.95;100.00;99211.41;2566589;30;138449;-40
2021/12/08 06:17:15;;;;;;;5.18;2.00;;;4.70;99.90;;;2.90;100.00;99209.28;2566029;30;137639;-40
2021/12/08 06:19:46;;;;;;;6.05;1.80;;;4.70;99.90;;;2.92;100.00;99207.25;2567787;30;139130;-39
2021/12/08 06:22:16;;;;;;;4.28;1.90;;;4.70;99.90;;;2.89;100.00;99207.63;2566681;30;138121;-39
2021/12/08 06:24:45;;;;;;;6.88;1.85;;;4.60;99.90;;;2.91;100.00;99208.25;2567572;30;139062;-40
2021/12/08 06:27:13;;;;;;;7.20;1.98;;;4.60;99.90;;;2.91;100.00;99210.94;2565057;30;137495;-39
2021/12/08 06:29:43;;;;;;;8.57;2.00;;;4.70;99.90;;;2.91;100.00;99197.47;2568549;30;138140;-40
2021/12/08 06:32:14;;;;;;;5.80;2.00;;;4.60;99.90;;;2.97;100.00;99207.47;2568649;30;138181;-39
2021/12/08 06:34:53;;;;;;;7.22;2.47;;;4.70;99.90;;;3.04;100.00;99217.44;2567214;30;139145;-40
2021/12/08 06:37:28;;;;;;;3.70;1.90;;;4.70;99.90;;;3.05;100.00;99219.09;2567772;30;137607;-39
2021/12/08 06:40:51;;;;;;;6.32;2.30;;;4.70;99.90;;;2.99;100.00;99216.19;2568224;30;136894;-39
2021/12/08 06:43:25;;;;;;;4.85;2.10;;;4.70;99.90;;;3.01;100.00;99230.28;2568394;30;137482;-39
2021/12/08 06:45:57;;;;;;;7.03;2.38;;;4.80;99.90;;;3.07;100.00;99223.25;2567551;30;138464;-39
2021/12/08 06:48:33;;;;;;;6.53;2.10;;;4.70;99.90;;;3.11;100.00;99219.13;2567161;30;137405;-40
2021/12/08 06:51:31;;;;;;;5.30;2.10;;;4.80;99.90;;;3.17;100.00;99217.47;2567354;30;138993;-40
2021/12/08 06:54:11;;;;;;;5.75;2.05;;;4.90;99.90;;;3.18;100.00;99229.91;2567668;30;137455;-39
2021/12/08 06:56:50;;;;;;;4.90;2.30;;;4.90;99.90;;;3.24;100.00;99241.75;2567718;30;137523;-40
2021/12/08 06:59:26;;;;;;;6.47;1.90;;;4.90;99.90;;;3.24;100.00;99239.06;2567063;30;137211;-39
2021/12/08 07:02:07;;;;;;;6.68;1.92;;;4.90;99.90;;;3.31;100.00;99248.81;2567312;30;139355;-40
2021/12/08 07:05:09;;;;;;;5.38;1.95;;;5.00;99.90;;;3.30;100.00;99254.41;2568922;30;137711;-40
2021/12/08 07:07:42;;;;;;;9.65;1.95;;;5.00;99.90;;;3.32;100.00;99257.75;2566743;30;137530;-40
2021/12/08 07:10:33;;;;;;;6.68;1.88;;;5.00;99.90;;;3.36;100.00;99241.97;2566959;30;137629;-40
2021/12/08 07:13:16;;;;;;;4.90;1.73;;;5.00;99.90;;;3.36;100.00;99253.63;2567753;30;137473;-40
2021/12/08 07:15:59;;;;;;;6.43;2.40;;;5.00;99.90;;;3.30;100.00;99259.78;2567521;30;137354;-40
2021/12/08 07:18:53;;;;;;;5.38;1.80;;;5.00;99.90;;;3.25;100.00;99260.44;2565471;30;138679;-40
2021/12/08 07:21:26;;;;;;;6.53;2.08;;;5.00;99.90;;;3.23;100.00;99262.50;2568301;30;137582;-40
2021/12/08 07:24:08;;;;;;;5.28;1.80;;;4.90;99.90;;;3.17;100.00;99257.88;2569084;30;137438;-40
2021/12/08 07:26:39;;;;;;;4.97;1.58;;;4.90;99.90;;;3.18;100.00;99259.56;2567249;30;138126;-39
2021/12/08 07:29:15;;;;;;;7.05;2.22;;;4.90;99.90;;;3.17;100.00;99256.03;2568423;30;139098;-40
2021/12/08 07:31:56;;;;;;;5.88;1.67;;;4.90;99.90;;;3.18;100.00;99254.16;2569425;30;138401;-39
2021/12/08 07:34:27;;;;;;;8.30;1.63;;;4.90;99.90;;;3.13;100.00;99260.19;2567981;30;138543;-39
2021/12/08 07:37:01;;;;;;;5.32;1.60;;;4.90;99.90;;;3.17;100.00;99260.59;2568433;30;137554;-39
2021/12/08 07:39:43;;;;;;;7.88;1.38;;;4.90;99.90;;;3.11;100.00;99256.00;2568449;30;138406;-40
2021/12/08 07:42:27;;;;;;;6.60;1.83;;;4.90;99.90;;;3.13;100.00;99245.84;2569040;30;137566;-40
2021/12/08 07:45:01;;;;;;;6.43;1.75;;;4.80;99.90;;;3.12;100.00;99252.28;2566455;30;139458;-40
2021/12/08 07:47:31;;;;;;;6.57;1.77;;;4.80;99.90;;;3.10;100.00;99254.34;2566074;30;137534;-40
2021/12/08 07:50:10;;;;;;;5.28;1.40;;;4.80;99.90;;;3.11;100.00;99256.84;2567381;30;138557;-40
2021/12/08 07:52:44;;;;;;;5.03;1.60;;;4.80;99.90;;;3.06;100.00;99258.47;2567883;30;138265;-39
2021/12/08 07:55:28;;;;;;;5.50;1.58;;;4.80;99.90;;;3.07;100.00;99270.91;2565888;30;138140;-40
2021/12/08 07:57:57;;;;;;;4.05;1.42;;;4.80;99.90;;;3.05;100.00;99278.38;2568092;30;137442;-39
2021/12/08 08:00:36;;;;;;;6.88;1.65;;;4.80;99.90;;;3.13;100.00;99280.91;2568505;30;137087;-40
2021/12/08 08:03:07;;;;;;;6.72;1.30;;;4.80;99.90;;;3.11;100.00;99283.81;2569253;30;137234;-39
2021/12/08 08:05:37;;;;;;;6.30;1.35;;;4.80;99.90;;;3.17;100.00;99298.31;2564298;30;138424;-39
2021/12/08 08:08:12;;;;;;;5.18;1.35;;;4.90;99.90;;;3.22;100.00;99295.03;2567777;30;138696;-40
2021/12/08 08:11:01;;;;;;;5.67;1.27;;;4.90;99.90;;;3.15;100.00;99293.16;2568167;30;138308;-40
2021/12/08 08:13:30;;;;;;;6.13;1.50;;;4.90;99.90;;;3.16;100.00;99302.03;2567864;30;137671;-40
2021/12/08 08:16:08;;;;;;;3.95;1.52;;;4.90;99.90;;;3.22;100.00;99287.78;2565374;30;138633;-40
2021/12/08 08:18:41;;;;;;;4.50;1.55;;;4.90;99.90;;;3.24;100.00;99296.50;2567694;30;137366;-40
2021/12/08 08:21:16;;;;;;;5.82;1.40;;;4.90;99.90;;;3.23;100.00;99286.75;2565769;30;137740;-39
2021/12/08 08:23:45;;;;;;;5.90;1.35;;;4.90;99.90;;;3.33;100.00;99294.47;2568873;30;136990;-40
2021/12/08 08:26:15;;;;;;;6.45;1.30;;;5.00;99.90;;;3.32;99.62;99300.88;2567685;30;139050;-40
2021/12/08 08:28:49;;;;;;;4.95;1.25;;;5.00;99.90;;;3.31;99.23;99302.75;2568604;30;137668;-40
2021/12/08 08:31:31;;;;;;;5.80;1.70;;;5.00;99.90;;;3.38;98.51;99305.47;2567056;30;138130;-40
2021/12/08 08:34:00;;;;;;;8.07;1.63;;;5.00;99.90;;;3.40;98.92;99314.19;2566687;30;137349;-40
2021/12/08 08:36:33;;;;;;;5.28;1.52;;;5.10;99.90;;;3.42;98.46;99316.66;2567398;30;137413;-39
2021/12/08 08:39:23;;;;;;;7.10;1.52;;;5.10;99.90;;;3.44;98.37;99318.13;2567510;30;137591;-40
2021/12/08 08:42:25;;;;;;;;;;;5.10;99.90;;;3.45;98.39;99316.28;2568139;30;138114;-39
2021/12/08 08:45:18;;;;;;;6.80;1.55;;;5.10;99.90;;;3.51;98.53;99325.41;2567367;30;137869;-40
2021/12/08 08:48:08;;;;;;;8.13;1.80;;;5.20;99.90;;;3.51;98.78;99318.16;2568452;30;138518;-40
2021/12/08 08:50:47;;;;;;;5.72;1.48;;;5.20;99.90;;;3.55;98.62;99318.56;2568421;30;137456;-40
2021/12/08 08:53:18;;;;;;;5.32;1.40;;;5.20;99.90;;;3.56;99.18;99329.16;2568242;30;138399;-40
2021/12/08 08:56:03;;;;;;;5.20;1.40;;;5.20;99.90;;;3.58;99.03;99320.84;2566723;30;138281;-40
2021/12/08 08:58:34;;;;;;;5.72;1.52;;;5.20;99.90;;;3.59;99.50;99320.66;2567864;30;139189;-40
2021/12/08 09:01:20;;;;;;;5.53;1.50;;;5.20;99.90;;;3.69;98.74;99328.34;2565331;30;137865;-40
2021/12/08 09:04:15;;;;;;;7.60;1.58;;;5.30;99.90;;;3.70;98.29;99326.47;2568423;30;139056;-40
2021/12/08 09:06:48;;;;;;;9.48;2.10;;;5.40;99.90;;;3.78;98.41;99328.16;2565362;30;138092;-40
2021/12/08 09:09:26;;;;;;;8.77;1.60;;;5.40;99.90;;;3.79;98.48;99322.56;2568189;30;137397;-40
2021/12/08 09:12:23;;;;;;;6.73;1.63;;;5.40;99.90;;;3.81;98.12;99319.66;2567987;30;137384;-40
2021/12/08 09:15:18;;;;;;;4.78;1.38;;;5.40;99.90;;;3.95;96.74;99315.09;2567295;30;138926;-40
2021/12/08 09:18:34;;;;;;;5.18;1.40;;;5.50;99.90;;;4.00;96.71;99315.34;2567638;30;137605;-40
2021/12/08 09:21:18;;;;;;;6.78;1.60;;;5.60;99.90;;;4.08;95.72;99325.94;2564622;30;139211;-40
2021/12/08 09:24:03;;;;;;;9.20;1.50;;;5.70;99.90;;;4.15;95.67;99337.56;2568123;30;137825;-40
2021/12/08 09:26:35;;;;;;;7.10;1.73;;;5.70;99.90;;;4.20;95.15;99349.59;2570982;30;138317;-38
2021/12/08 09:29:14;;;;;;;5.97;1.67;;;5.80;99.90;;;4.26;94.60;99355.00;2568778;30;137431;-39
2021/12/08 09:31:54;;;;;;;6.90;1.85;;;5.80;99.90;;;4.35;93.80;99361.03;2568510;30;139079;-39
2021/12/08 09:34:32;;;;;;;7.50;1.65;;;5.90;99.90;;;4.41;93.75;99353.97;2569201;30;138138;-38
2021/12/08 09:37:18;;;;;;;5.43;1.48;;;6.00;99.90;;;4.44;92.13;99346.28;2570099;30;138180;-39
2021/12/08 09:39:53;;;;;;;8.50;1.75;;;6.00;99.90;;;4.51;92.08;99348.13;2569251;30;137428;-39
2021/12/08 09:42:40;;;;;;;4.82;1.42;;;6.10;99.90;;;4.53;93.03;99354.19;2567476;30;137427;-40
2021/12/08 09:45:20;;;;;;;6.18;1.63;;;6.10;99.90;;;4.57;92.63;99356.25;2569146;30;137427;-39
2021/12/08 09:47:48;;;;;;;9.80;1.70;;;6.10;99.90;;;4.63;93.46;99367.25;2568110;30;137415;-40
2021/12/08 09:50:16;;;;;;;5.75;1.48;;;6.20;99.90;;;4.67;92.98;99361.22;2569094;30;137449;-39
2021/12/08 09:52:47;;;;;;;7.47;1.50;;;6.20;99.90;;;4.71;92.08;99357.06;2568832;30;138344;-40
2021/12/08 09:55:17;;;;;;;7.45;1.30;;;6.30;99.90;;;4.74;90.97;99366.63;2571389;30;138903;-39
2021/12/08 09:57:47;;;;;;;6.68;1.63;;;6.30;99.90;;;4.82;89.84;99362.88;2569493;30;137294;-39
2021/12/08 10:00:31;;;;;;;6.32;1.25;;;6.40;99.90;;;4.89;88.99;99353.69;2568483;30;137334;-40
2021/12/08 10:03:00;;;;;;;3.90;0.90;;;6.40;99.90;;;4.89;89.43;99361.81;2565378;30;138075;-39
2021/12/08 10:05:33;;;;;;;5.07;1.63;;;6.40;99.90;;;4.97;90.27;99362.66;2568909;30;137362;-40
2021/12/08 10:08:04;;;;;;;6.50;1.38;;;6.50;99.90;;;5.07;90.60;99367.63;2567596;30;137398;-39
2021/12/08 10:10:33;;;;;;;8.23;1.60;;;6.60;99.90;;;5.12;87.74;99379.44;2570173;30;137320;-39
2021/12/08 10:13:01;;;;;;;4.72;1.33;;;6.70;99.90;;;5.16;88.21;99371.75;2569614;30;138171;-39
2021/12/08 10:15:29;;;;;;;6.25;1.48;;;6.70;99.90;;;5.16;88.28;99375.25;2569143;30;137199;-39
2021/12/08 10:17:58;;;;;;;5.00;1.30;;;6.70;99.90;;;5.10;86.94;99369.88;2571132;30;138160;-39
2021/12/08 10:20:31;;;;;;;5.55;1.33;;;6.70;99.90;;;5.26;86.54;99382.13;2569408;30;137876;-39
2021/12/08 10:23:21;;;;;;;4.43;1.48;;;6.80;99.90;;;5.26;87.11;99382.13;2569016;30;138183;-40
2021/12/08 10:25:59;;;;;;;7.30;1.55;;;6.80;99.90;;;5.28;86.73;99383.53;2568982;30;137966;-40
2021/12/08 10:28:39;;;;;;;9.73;1.33;;;6.80;99.90;;;5.28;86.25;99385.44;2569294;30;138173;-40
2021/12/08 10:31:39;;;;;;;6.97;1.30;;;6.80;99.90;;;5.36;86.00;99385.19;2568866;30;137535;-39
2021/12/08 10:37:18;;;;;;;4.05;1.40;;;6.90;99.90;;;5.38;85.34;99395.81;2570237;30;138728;-40
2021/12/08 10:39:52;;;;;;;5.90;1.00;;;7.00;99.90;;;5.44;84.39;99387.69;2570519;30;138374;-39
2021/12/08 10:42:26;;;;;;;6.38;1.35;;;7.00;99.90;;;5.39;84.50;99370.41;2569302;30;137643;-39
2021/12/08 10:45:13;;;;;;;7.47;1.45;;;6.90;99.90;;;5.40;85.52;99364.78;2568883;30;138364;-39
2021/12/08 10:48:01;;;;;;;7.15;1.50;;;6.90;99.90;;;5.45;86.22;99364.16;2568902;30;136890;-40
2021/12/08 10:56:40;;;;;;;4.90;1.20;;;7.10;99.90;;;5.54;83.55;99376.38;2568163;30;138683;-40
2021/12/08 10:59:07;;;;;;;6.10;1.42;;;7.10;99.90;;;5.59;84.26;99373.03;2569769;30;137340;-39
2021/12/08 11:01:35;;;;;;;4.75;1.38;;;7.10;99.90;;;5.59;83.67;99382.00;2570565;30;138295;-39
2021/12/08 11:04:11;;;;;;;6.45;1.55;;;7.10;99.90;;;5.57;84.88;99373.25;2570960;30;137322;-40
2021/12/08 11:06:39;;;;;;;6.00;1.70;;;7.10;99.90;;;5.57;83.89;99375.13;2569022;30;138439;-40
2021/12/08 11:09:19;;;;;;;5.60;1.20;;;7.10;99.90;;;5.58;84.25;99372.22;2569211;30;138016;-39
2021/12/08 11:11:48;;;;;;;4.75;1.10;;;7.10;99.90;;;5.58;84.07;99376.78;2570702;30;137394;-39
2021/12/08 11:14:16;;;;;;;6.60;1.80;;;7.10;99.90;;;5.64;83.29;99388.63;2567466;30;138196;-39
2021/12/08 11:16:44;;;;;;;6.03;1.85;;;7.20;99.90;;;5.65;83.22;99387.59;2571093;30;138311;-40
2021/12/08 11:19:24;;;;;;;5.43;1.33;;;7.20;99.90;;;5.69;82.09;99389.63;2570485;30;136694;-39
2021/12/08 11:21:57;;;;;;;3.97;1.15;;;7.20;99.90;;;5.70;82.67;99388.59;2570810;30;137288;-39
2021/12/08 11:24:42;;;;;;;8.13;1.20;;;7.30;99.90;;;5.71;82.91;99392.13;2567476;30;136942;-39
2021/12/08 11:27:10;;;;;;;5.40;1.30;;;7.30;99.90;;;5.73;82.90;99408.97;2569559;30;138936;-40
2021/12/08 11:29:42;;;;;;;9.05;1.40;;;7.30;99.90;;;5.73;82.37;99408.97;2569152;30;137526;-40
2021/12/08 11:32:18;;;;;;;9.55;1.40;;;7.30;99.90;;;5.76;82.65;99424.78;2569382;30;138895;-39
2021/12/08 11:34:48;;;;;;;5.85;1.10;;;7.30;99.90;;;5.85;81.99;99409.13;2569991;30;138393;-39
2021/12/08 11:37:25;;;;;;;5.65;1.60;;;7.40;99.90;;;5.87;82.30;99416.00;2567671;30;138167;-40
2021/12/08 11:39:58;;;;;;;6.20;1.58;;;7.40;99.90;;;5.90;81.21;99412.84;2569669;30;136974;-39